createdAt,value
2022-09-23T00:02:07.752Z,99291.72
2022-09-23T00:04:37.244Z,99286.13
2022-09-23T00:07:05.393Z,99284.03
2022-09-23T00:09:33.513Z,99285.22
2022-09-23T00:12:04.635Z,99285.31
2022-09-23T00:14:35.005Z,99283.81
2022-09-23T00:17:03.234Z,99291.69
2022-09-23T00:19:31.294Z,99287.69
2022-09-23T00:22:00.650Z,99291.75
2022-09-23T00:24:32.436Z,99284.75
2022-09-23T00:27:00.488Z,99289.88
2022-09-23T00:29:28.566Z,99282.06
2022-09-23T00:31:56.568Z,99278.09
2022-09-23T00:34:24.567Z,99284.56
2022-09-23T00:36:52.679Z,99282.97
2022-09-23T00:39:22.028Z,99288.88
2022-09-23T00:41:50.059Z,99281.59
2022-09-23T00:44:45.173Z,99281.00
2022-09-23T00:47:17.928Z,99282.50
2022-09-23T00:49:48.221Z,99278.75
2022-09-23T00:52:19.934Z,99282.94
2022-09-23T00:54:49.855Z,99288.13
2022-09-23T00:57:20.028Z,99288.06
2022-09-23T00:59:50.771Z,99284.25
2022-09-23T01:02:21.102Z,99280.16
2022-09-23T01:04:50.434Z,99280.34
2022-09-23T01:07:18.845Z,99283.31
2022-09-23T01:09:49.904Z,99279.97
2022-09-23T01:12:31.566Z,99280.47
2022-09-23T01:15:08.321Z,99278.38
2022-09-23T01:17:42.838Z,99286.53
2022-09-23T01:20:38.953Z,99281.16
2022-09-23T01:23:23.402Z,99278.66
2022-09-23T01:26:09.219Z,99283.69
2022-09-23T01:29:03.474Z,99288.09
2022-09-23T01:31:37.882Z,99286.09
2022-09-23T01:34:12.666Z,99286.72
2022-09-23T01:36:45.677Z,99294.91
2022-09-23T01:39:20.131Z,99288.34
2022-09-23T01:41:56.621Z,99287.06
2022-09-23T01:44:33.520Z,99286.34
2022-09-23T01:47:10.978Z,99290.94
2022-09-23T01:49:48.592Z,99297.13
2022-09-23T01:52:20.633Z,99294.94
2022-09-23T01:54:54.358Z,99293.34
2022-09-23T01:57:28.524Z,99296.53
2022-09-23T02:00:01.415Z,99290.44
2022-09-23T02:02:37.307Z,99303.19
2022-09-23T02:05:10.822Z,99300.72
2022-09-23T02:07:44.732Z,99301.72
2022-09-23T02:10:18.415Z,99300.31
2022-09-23T02:12:49.939Z,99303.72
2022-09-23T02:15:20.965Z,99301.13
2022-09-23T02:17:53.176Z,99299.41
2022-09-23T02:20:26.004Z,99301.53
2022-09-23T02:23:01.437Z,99303.22
2022-09-23T02:25:36.853Z,99302.72
2022-09-23T02:28:12.330Z,99306.22
2022-09-23T02:30:47.687Z,99310.78
2022-09-23T02:33:24.683Z,99308.69
2022-09-23T02:35:57.022Z,99315.38
2022-09-23T02:38:34.647Z,99317.69
2022-09-23T02:41:09.474Z,99317.88
2022-09-23T02:43:45.904Z,99302.72
2022-09-23T02:46:14.260Z,99318.47
2022-09-23T02:48:47.656Z,99308.22
2022-09-23T02:51:16.001Z,99308.22
2022-09-23T02:53:45.940Z,99310.09
2022-09-23T02:56:16.730Z,99308.69
2022-09-23T02:58:46.989Z,99319.09
2022-09-23T03:01:23.841Z,99315.09
2022-09-23T03:03:59.530Z,99315.06
2022-09-23T03:06:33.296Z,99322.72
2022-09-23T03:09:10.471Z,99320.22
2022-09-23T03:11:42.101Z,99314.66
2022-09-23T03:14:18.125Z,99326.38
2022-09-23T03:16:54.211Z,99320.69
2022-09-23T03:19:30.248Z,99323.31
2022-09-23T03:22:03.547Z,99318.84
2022-09-23T03:24:35.040Z,99331.13
2022-09-23T03:27:06.492Z,99325.53
2022-09-23T03:29:37.389Z,99329.03
2022-09-23T03:32:08.341Z,99326.50
2022-09-23T03:34:39.803Z,99323.88
2022-09-23T03:37:15.483Z,99328.47
2022-09-23T03:39:45.742Z,99321.50
2022-09-23T03:42:17.586Z,99322.16
2022-09-23T03:44:47.110Z,99328.94
2022-09-23T03:47:16.591Z,99326.56
2022-09-23T03:49:48.471Z,99323.28
2022-09-23T03:52:16.827Z,99315.19
2022-09-23T03:54:45.441Z,99320.84
2022-09-23T03:57:14.311Z,99310.97
2022-09-23T03:59:42.532Z,99326.03
2022-09-23T04:02:11.973Z,99327.69
2022-09-23T04:04:41.178Z,99335.50
2022-09-23T04:07:11.363Z,99333.53
2022-09-23T04:09:39.499Z,99325.44
2022-09-23T04:12:08.294Z,99326.03
2022-09-23T04:14:36.295Z,99321.84
2022-09-23T04:17:04.321Z,99339.44
2022-09-23T04:19:32.363Z,99334.47
2022-09-23T04:22:00.508Z,99328.72
2022-09-23T04:24:29.887Z,99337.31
2022-09-23T04:26:58.538Z,99336.28
2022-09-23T04:29:27.077Z,99332.00
2022-09-23T04:31:55.743Z,99328.84
2022-09-23T04:34:23.690Z,99329.78
2022-09-23T04:36:51.840Z,99336.53
2022-09-23T04:39:19.797Z,99344.69
2022-09-23T04:41:49.105Z,99341.53
2022-09-23T04:44:17.225Z,99327.28
2022-09-23T04:46:48.208Z,99330.97
2022-09-23T04:49:17.451Z,99331.16
2022-09-23T04:51:45.673Z,99330.56
2022-09-23T04:54:14.962Z,99328.22
2022-09-23T04:56:43.206Z,99326.91
2022-09-23T04:59:12.558Z,99334.22
2022-09-23T05:01:40.764Z,99335.19
2022-09-23T05:04:14.324Z,99329.72
2022-09-23T05:06:45.213Z,99334.41
2022-09-23T05:09:17.857Z,99333.84
2022-09-23T05:11:46.547Z,99330.56
2022-09-23T05:14:16.022Z,99338.84
2022-09-23T05:16:44.004Z,99334.16
2022-09-23T05:19:13.680Z,99340.03
2022-09-23T05:21:41.891Z,99343.34
2022-09-23T05:24:10.840Z,99338.16
2022-09-23T05:26:38.858Z,99344.66
2022-09-23T05:29:07.032Z,99353.31
2022-09-23T05:31:36.878Z,99345.81
2022-09-23T05:34:06.432Z,99350.75
2022-09-23T05:36:38.572Z,99343.13
2022-09-23T05:39:08.428Z,99345.44
2022-09-23T05:41:37.142Z,99349.44
2022-09-23T05:44:05.493Z,99355.66
2022-09-23T05:46:33.766Z,99351.03
2022-09-23T05:49:04.336Z,99353.13
2022-09-23T05:51:35.768Z,99354.59
2022-09-23T05:54:05.403Z,99348.56
2022-09-23T05:56:34.675Z,99349.16
2022-09-23T05:59:03.722Z,99353.38
2022-09-23T06:01:34.174Z,99351.47
2022-09-23T06:04:05.732Z,99346.16
2022-09-23T06:06:35.499Z,99351.06
2022-09-23T06:09:04.078Z,99349.56
2022-09-23T06:11:33.920Z,99354.00
2022-09-23T06:14:02.743Z,99352.78
2022-09-23T06:16:32.385Z,99349.34
2022-09-23T06:19:05.937Z,99349.19
2022-09-23T06:21:38.035Z,99349.69
2022-09-23T06:24:07.703Z,99356.78
2022-09-23T06:26:37.977Z,99356.00
2022-09-23T06:29:11.540Z,99357.84
2022-09-23T06:31:41.272Z,99363.50
2022-09-23T06:34:13.230Z,99372.19
2022-09-23T06:36:45.841Z,99362.72
2022-09-23T06:39:15.199Z,99360.22
2022-09-23T06:41:43.672Z,99368.38
2022-09-23T06:44:11.731Z,99368.19
2022-09-23T06:46:39.808Z,99359.59
2022-09-23T06:49:07.971Z,99365.38
2022-09-23T06:51:36.027Z,99360.19
2022-09-23T06:54:05.929Z,99363.16
2022-09-23T06:56:38.805Z,99366.25
2022-09-23T06:59:08.434Z,99364.06
2022-09-23T07:01:36.547Z,99368.34
2022-09-23T07:04:05.066Z,99368.84
2022-09-23T07:06:33.217Z,99370.75
2022-09-23T07:09:01.280Z,99367.75
2022-09-23T07:11:31.009Z,99379.63
2022-09-23T07:13:59.069Z,99367.41
2022-09-23T07:16:27.316Z,99378.75
2022-09-23T07:18:56.347Z,99373.84
2022-09-23T07:21:24.389Z,99375.06
2022-09-23T07:23:52.573Z,99377.34
2022-09-23T07:26:22.929Z,99369.91
2022-09-23T07:28:56.766Z,99371.81
2022-09-23T07:31:37.053Z,99368.84
2022-09-23T07:34:06.701Z,99362.03
2022-09-23T07:36:37.408Z,99371.22
2022-09-23T07:39:05.842Z,99375.63
2022-09-23T07:41:34.820Z,99377.63
2022-09-23T07:44:06.413Z,99368.38
2022-09-23T07:46:37.102Z,99383.66
2022-09-23T07:49:06.430Z,99374.91
2022-09-23T07:51:36.982Z,99374.28
2022-09-23T07:54:08.886Z,99377.78
2022-09-23T07:56:38.240Z,99375.41
2022-09-23T07:59:09.286Z,99372.84
2022-09-23T08:01:39.924Z,99367.94
2022-09-23T08:04:11.704Z,99370.44
2022-09-23T08:06:42.463Z,99365.69
2022-09-23T08:09:11.048Z,99360.09
2022-09-23T08:11:39.479Z,99359.16
2022-09-23T08:14:08.902Z,99364.25
2022-09-23T08:16:37.233Z,99362.31
2022-09-23T08:21:39.432Z,99359.09
2022-09-23T08:24:07.998Z,99352.69
2022-09-23T08:26:36.777Z,99354.25
2022-09-23T08:29:05.027Z,99349.03
2022-09-23T08:31:34.353Z,99346.59
2022-09-23T08:34:02.938Z,99352.78
2022-09-23T08:36:32.484Z,99344.66
2022-09-23T08:39:00.411Z,99339.84
2022-09-23T08:41:39.036Z,99344.56
2022-09-23T08:44:15.001Z,99337.00
2022-09-23T08:46:48.586Z,99338.19
2022-09-23T08:49:25.396Z,99329.38
2022-09-23T08:51:55.496Z,99326.59
2022-09-23T08:54:23.918Z,99325.53
2022-09-23T08:56:53.327Z,99324.09
2022-09-23T08:59:29.162Z,99311.84
2022-09-23T09:02:01.648Z,99322.75
2022-09-23T09:04:40.369Z,99314.28
2022-09-23T09:07:36.641Z,99311.47
2022-09-23T09:10:11.761Z,99307.84
2022-09-23T09:12:44.143Z,99304.84
2022-09-23T09:15:15.373Z,99309.59
2022-09-23T09:17:59.423Z,99305.66
2022-09-23T09:20:36.199Z,99305.63
2022-09-23T09:23:16.589Z,99309.22
2022-09-23T09:25:46.733Z,99307.91
2022-09-23T09:28:21.990Z,99308.50
2022-09-23T09:30:54.031Z,99311.28
2022-09-23T09:33:30.561Z,99318.63
2022-09-23T09:36:09.003Z,99318.19
2022-09-23T09:38:37.507Z,99320.94
2022-09-23T09:41:15.042Z,99311.09
2022-09-23T09:43:48.510Z,99311.97
2022-09-23T09:46:34.346Z,99316.00
2022-09-23T09:49:08.623Z,99314.78
2022-09-23T09:51:38.288Z,99311.69
2022-09-23T09:54:23.096Z,99311.50
2022-09-23T09:56:53.369Z,99311.84
2022-09-23T09:59:28.560Z,99305.34
2022-09-23T10:02:21.542Z,99309.53
2022-09-23T10:04:58.212Z,99309.94
2022-09-23T10:07:28.481Z,99311.16
2022-09-23T10:10:01.783Z,99305.84
2022-09-23T10:12:46.191Z,99303.34
2022-09-23T10:15:31.295Z,99305.25
2022-09-23T10:18:01.294Z,99303.84
2022-09-23T10:20:38.232Z,99300.00
2022-09-23T10:23:15.820Z,99302.50
2022-09-23T10:25:44.092Z,99299.28
2022-09-23T10:28:48.151Z,99296.88
2022-09-23T10:31:24.801Z,99294.25
2022-09-23T10:33:57.333Z,99280.06
2022-09-23T10:36:28.002Z,99286.38
2022-09-23T10:39:19.729Z,99296.91
2022-09-23T10:42:18.792Z,99287.84
2022-09-23T10:45:18.772Z,99282.06
2022-09-23T10:47:59.541Z,99282.59
2022-09-23T10:50:39.053Z,99282.56
2022-09-23T10:53:16.756Z,99281.16
2022-09-23T10:55:55.591Z,99276.69
2022-09-23T10:58:55.473Z,99269.28
2022-09-23T11:01:36.967Z,99261.97
2022-09-23T11:04:52.931Z,99255.53
2022-09-23T11:07:25.968Z,99253.97
2022-09-23T11:10:49.612Z,99251.91
2022-09-23T11:13:32.635Z,99248.06
2022-09-23T11:16:15.394Z,99247.16
2022-09-23T11:18:57.132Z,99246.13
2022-09-23T11:21:44.215Z,99251.56
2022-09-23T11:25:00.288Z,99247.03
2022-09-23T11:27:47.100Z,99240.22
2022-09-23T11:30:20.084Z,99249.97
2022-09-23T11:33:14.601Z,99261.84
2022-09-23T11:35:49.249Z,99267.00
2022-09-23T11:38:26.056Z,99250.38
2022-09-23T11:40:57.630Z,99261.81
2022-09-23T11:43:29.854Z,99260.34
2022-09-23T11:46:01.466Z,99242.97
2022-09-23T11:48:37.896Z,99262.09
2022-09-23T11:51:13.476Z,99261.19
2022-09-23T11:53:46.616Z,99262.34
2022-09-23T11:56:32.334Z,99266.09
2022-09-23T11:59:15.973Z,99258.31
2022-09-23T12:01:49.623Z,99264.59
2022-09-23T12:04:26.289Z,99262.69
2022-09-23T12:07:01.146Z,99280.34
2022-09-23T12:09:57.374Z,99277.44
2022-09-23T12:12:33.020Z,99285.59
2022-09-23T12:15:09.810Z,99292.22
2022-09-23T12:18:22.819Z,99298.66
2022-09-23T12:21:38.854Z,99300.69
2022-09-23T12:24:19.310Z,99292.66
2022-09-23T12:26:52.124Z,99303.03
2022-09-23T12:29:21.344Z,99305.19
2022-09-23T12:31:50.886Z,99302.31
2022-09-23T12:34:29.021Z,99297.16
2022-09-23T12:37:04.528Z,99288.94
2022-09-23T12:39:34.609Z,99273.69
2022-09-23T12:42:04.822Z,99258.25
2022-09-23T12:44:37.712Z,99256.34
2022-09-23T12:47:41.074Z,99265.06
2022-09-23T12:50:46.216Z,99269.38
2022-09-23T12:53:54.317Z,99261.22
2022-09-23T12:56:26.617Z,99240.44
2022-09-23T12:59:03.024Z,99231.69
2022-09-23T13:01:38.531Z,99224.91
2022-09-23T13:04:45.557Z,99232.25
2022-09-23T13:07:20.071Z,99246.63
2022-09-23T13:09:50.826Z,99237.47
2022-09-23T13:12:22.450Z,99240.25
2022-09-23T13:14:52.158Z,99234.09
2022-09-23T13:17:27.057Z,99242.28
2022-09-23T13:20:07.160Z,99244.34
2022-09-23T13:23:01.395Z,99248.66
2022-09-23T13:25:33.489Z,99255.19
2022-09-23T13:28:03.873Z,99259.56
2022-09-23T13:30:31.862Z,99260.53
2022-09-23T13:33:07.380Z,99266.06
2022-09-23T13:35:39.103Z,99258.53
2022-09-23T13:38:19.730Z,99266.03
2022-09-23T13:40:49.357Z,99255.59
2022-09-23T13:43:24.451Z,99245.38
2022-09-23T13:45:52.719Z,99250.91
2022-09-23T13:48:24.983Z,99264.66
2022-09-23T13:50:55.406Z,99262.44
2022-09-23T13:53:27.166Z,99271.75
2022-09-23T13:56:03.195Z,99267.19
2022-09-23T13:58:32.612Z,99269.75
2022-09-23T14:01:01.212Z,99274.59
2022-09-23T14:03:36.160Z,99281.41
2022-09-23T14:06:10.980Z,99271.41
2022-09-23T14:08:41.263Z,99261.50
2022-09-23T14:11:09.482Z,99252.41
2022-09-23T14:13:43.394Z,99251.06
2022-09-23T14:16:14.918Z,99244.22
2022-09-23T14:18:46.612Z,99235.38
2022-09-23T14:21:35.117Z,99236.06
2022-09-23T14:24:17.766Z,99231.75
2022-09-23T14:26:48.759Z,99227.78
2022-09-23T14:29:18.966Z,99223.75
2022-09-23T14:31:57.017Z,99227.31
2022-09-23T14:34:51.244Z,99218.44
2022-09-23T14:37:46.069Z,99217.03
2022-09-23T14:40:18.010Z,99218.03
2022-09-23T14:42:49.608Z,99213.25
2022-09-23T14:45:21.041Z,99213.91
2022-09-23T14:47:52.198Z,99206.13
2022-09-23T14:50:40.417Z,99212.44
2022-09-23T14:53:38.484Z,99204.81
2022-09-23T14:56:13.750Z,99192.84
2022-09-23T14:58:51.911Z,99204.53
2022-09-23T15:01:41.646Z,99207.66
2022-09-23T15:04:29.619Z,99222.22
2022-09-23T15:07:00.484Z,99223.00
2022-09-23T15:09:33.102Z,99223.00
2022-09-23T15:12:03.499Z,99219.53
2022-09-23T15:14:38.729Z,99219.91
2022-09-23T15:17:16.875Z,99220.94
2022-09-23T15:19:46.630Z,99214.97
2022-09-23T15:22:16.683Z,99221.88
2022-09-23T15:24:47.142Z,99226.22
2022-09-23T15:27:28.945Z,99218.31
2022-09-23T15:30:03.015Z,99225.78
2022-09-23T15:32:31.043Z,99223.84
2022-09-23T15:34:58.950Z,99246.69
2022-09-23T15:37:26.996Z,99262.75
2022-09-23T15:39:56.319Z,99243.94
2022-09-23T15:42:24.641Z,99255.44
2022-09-23T15:44:52.577Z,99257.13
2022-09-23T15:47:21.563Z,99267.22
2022-09-23T15:49:49.717Z,99249.00
2022-09-23T15:52:17.751Z,99269.63
2022-09-23T15:54:46.082Z,99258.47
2022-09-23T15:57:15.552Z,99248.19
2022-09-23T15:59:44.070Z,99236.25
2022-09-23T16:02:20.385Z,99226.63
2022-09-23T16:04:52.653Z,99216.72
2022-09-23T16:07:21.416Z,99205.13
2022-09-23T16:09:49.362Z,99190.72
2022-09-23T16:12:18.707Z,99188.97
2022-09-23T16:14:46.667Z,99205.94
2022-09-23T16:17:15.100Z,99201.47
2022-09-23T16:19:43.583Z,99228.88
2022-09-23T16:22:15.368Z,99228.41
2022-09-23T16:24:43.390Z,99229.09
2022-09-23T16:27:14.698Z,99238.75
2022-09-23T16:29:44.212Z,99246.28
2022-09-23T16:32:12.178Z,99247.31
2022-09-23T16:34:40.351Z,99248.75
2022-09-23T16:37:13.163Z,99256.25
2022-09-23T16:39:41.131Z,99264.69
2022-09-23T16:42:10.443Z,99264.84
2022-09-23T16:44:41.539Z,99259.63
2022-09-23T16:47:10.919Z,99270.25
2022-09-23T16:49:38.862Z,99261.34
2022-09-23T16:52:07.698Z,99264.06
2022-09-23T16:54:37.505Z,99276.50
2022-09-23T16:57:05.548Z,99271.88
2022-09-23T16:59:47.420Z,99281.59
2022-09-23T17:02:34.244Z,99281.91
2022-09-23T17:05:02.258Z,99286.22
2022-09-23T17:07:31.995Z,99283.00
2022-09-23T17:10:00.251Z,99284.63
2022-09-23T17:12:35.137Z,99281.75
2022-09-23T17:15:05.425Z,99285.56
2022-09-23T17:17:41.380Z,99284.59
2022-09-23T17:20:09.766Z,99279.03
2022-09-23T17:22:37.820Z,99274.13
2022-09-23T17:25:06.691Z,99276.19
2022-09-23T17:27:34.840Z,99272.34
2022-09-23T17:30:02.930Z,99282.69
2022-09-23T17:32:30.995Z,99285.22
2022-09-23T17:35:04.558Z,99285.03
2022-09-23T17:37:33.394Z,99283.75
2022-09-23T17:40:01.714Z,99286.44
2022-09-23T17:42:30.087Z,99289.72
2022-09-23T17:44:59.402Z,99288.72
2022-09-23T17:47:27.610Z,99281.50
2022-09-23T17:49:56.190Z,99282.59
2022-09-23T17:52:25.832Z,99287.47
2022-09-23T17:54:55.034Z,99284.72
2022-09-23T17:57:23.141Z,99294.34
2022-09-23T17:59:53.696Z,99293.03
2022-09-23T18:02:22.622Z,99293.91
2022-09-23T18:04:50.725Z,99303.03
2022-09-23T18:07:18.727Z,99305.50
2022-09-23T18:09:48.741Z,99297.91
2022-09-23T18:12:16.972Z,99303.69
2022-09-23T18:14:47.801Z,99300.66
2022-09-23T18:17:16.318Z,99296.75
2022-09-23T18:19:46.593Z,99303.88
2022-09-23T18:22:14.563Z,99293.19
2022-09-23T18:24:42.742Z,99289.19
2022-09-23T18:27:12.093Z,99297.09
2022-09-23T18:29:40.054Z,99297.72
2022-09-23T18:32:12.161Z,99305.09
2022-09-23T18:34:41.911Z,99307.91
2022-09-23T18:37:15.712Z,99310.19
2022-09-23T18:39:44.833Z,99313.00
2022-09-23T18:42:14.747Z,99308.53
2022-09-23T18:44:42.772Z,99317.50
2022-09-23T18:47:31.452Z,99313.81
2022-09-23T18:50:16.614Z,99315.22
2022-09-23T18:52:44.556Z,99324.19
2022-09-23T18:55:12.698Z,99315.09
2022-09-23T18:57:42.049Z,99322.69
2022-09-23T19:00:11.266Z,99320.28
2022-09-23T19:02:39.187Z,99317.09
2022-09-23T19:05:08.092Z,99313.91
2022-09-23T19:07:36.107Z,99323.38
2022-09-23T19:10:04.076Z,99314.91
2022-09-23T19:12:32.114Z,99320.66
2022-09-23T19:15:01.578Z,99325.06
2022-09-23T19:17:30.626Z,99326.44
2022-09-23T19:19:58.676Z,99321.34
2022-09-23T19:22:26.729Z,99316.25
2022-09-23T19:24:54.634Z,99321.13
2022-09-23T19:27:23.211Z,99314.16
2022-09-23T19:29:51.238Z,99312.56
2022-09-23T19:32:21.298Z,99316.84
2022-09-23T19:34:49.259Z,99317.66
2022-09-23T19:37:17.240Z,99317.34
2022-09-23T19:39:45.921Z,99324.03
2022-09-23T19:42:13.947Z,99317.25
2022-09-23T19:44:41.977Z,99319.66
2022-09-23T19:47:15.503Z,99312.66
2022-09-23T19:49:45.071Z,99315.66
2022-09-23T19:52:13.139Z,99318.03
2022-09-23T19:54:41.303Z,99318.88
2022-09-23T19:57:09.578Z,99311.88
2022-09-23T19:59:39.305Z,99319.75
2022-09-23T20:02:07.604Z,99317.94
2022-09-23T20:04:35.622Z,99328.50
2022-09-23T20:07:06.029Z,99321.31
2022-09-23T20:09:34.988Z,99324.81
2022-09-23T20:12:03.606Z,99329.91
2022-09-23T20:14:31.653Z,99336.31
2022-09-23T20:17:00.148Z,99338.41
2022-09-23T20:19:28.251Z,99342.41
2022-09-23T20:22:10.136Z,99329.94
2022-09-23T20:24:39.672Z,99339.81
2022-09-23T20:27:09.466Z,99340.31
2022-09-23T20:29:37.989Z,99343.00
2022-09-23T20:32:06.107Z,99339.22
2022-09-23T20:34:34.476Z,99338.44
2022-09-23T20:37:04.346Z,99343.50
2022-09-23T20:39:32.646Z,99344.03
2022-09-23T20:42:02.752Z,99351.50
2022-09-23T20:44:30.649Z,99351.22
2022-09-23T20:46:58.731Z,99340.03
2022-09-23T20:49:26.865Z,99347.44
2022-09-23T20:51:54.921Z,99342.75
2022-09-23T20:54:23.438Z,99334.88
2022-09-23T20:56:51.448Z,99343.66
2022-09-23T20:59:20.783Z,99339.25
2022-09-23T21:01:51.945Z,99330.88
2022-09-23T21:04:19.907Z,99331.66
2022-09-23T21:06:47.892Z,99326.69
2022-09-23T21:09:15.939Z,99328.38
2022-09-23T21:11:43.856Z,99313.72
2022-09-23T21:14:11.855Z,99326.25
2022-09-23T21:16:41.688Z,99322.88
2022-09-23T21:19:09.695Z,99318.19
2022-09-23T21:21:37.881Z,99321.56
2022-09-23T21:24:36.060Z,99324.63
2022-09-23T21:26:54.418Z,99321.22
2022-09-23T21:29:22.475Z,99331.28
2022-09-23T21:31:51.949Z,99324.91
2022-09-23T21:34:20.057Z,99326.28
2022-09-23T21:36:48.921Z,99316.41
2022-09-23T21:39:16.879Z,99320.78
2022-09-23T21:41:44.900Z,99310.59
2022-09-23T21:44:12.910Z,99316.59
2022-09-23T21:46:41.073Z,99319.88
2022-09-23T21:49:10.507Z,99324.41
2022-09-23T21:51:41.547Z,99318.56
2022-09-23T21:54:14.199Z,99325.00
2022-09-23T21:56:43.102Z,99319.94
2022-09-23T21:59:11.420Z,99316.72
2022-09-23T22:01:42.078Z,99322.44
2022-09-23T22:04:17.215Z,99325.69
2022-09-23T22:06:46.313Z,99327.88
2022-09-23T22:09:16.971Z,99323.88
2022-09-23T22:12:02.699Z,99323.69
2022-09-23T22:14:31.226Z,99327.75
2022-09-23T22:17:01.495Z,99328.59
2022-09-23T22:19:35.125Z,99331.84
2022-09-23T22:22:07.307Z,99331.34
2022-09-23T22:24:35.430Z,99333.53
2022-09-23T22:27:03.390Z,99327.13
2022-09-23T22:29:48.984Z,99328.00
2022-09-23T22:32:34.481Z,99337.22
2022-09-23T22:35:03.893Z,99334.31
2022-09-23T22:37:34.327Z,99334.38
2022-09-23T22:40:03.184Z,99343.34
2022-09-23T22:42:31.354Z,99337.44
2022-09-23T22:44:59.578Z,99339.94
2022-09-23T22:47:28.275Z,99335.94
2022-09-23T22:49:56.307Z,99335.13
2022-09-23T22:52:25.812Z,99348.06
2022-09-23T22:54:54.231Z,99349.63
2022-09-23T22:57:22.172Z,99352.13
2022-09-23T22:59:50.308Z,99353.75
2022-09-23T23:02:20.070Z,99355.16
2022-09-23T23:04:48.757Z,99351.94
2022-09-23T23:07:21.134Z,99347.66
2022-09-23T23:09:51.711Z,99354.13
2022-09-23T23:12:21.108Z,99348.53
2022-09-23T23:14:50.135Z,99350.91
2022-09-23T23:17:18.960Z,99354.66
2022-09-23T23:19:47.524Z,99348.75
2022-09-23T23:22:15.478Z,99350.13
2022-09-23T23:24:43.539Z,99343.72
2022-09-23T23:27:12.946Z,99344.78
2022-09-23T23:29:40.928Z,99351.28
2022-09-23T23:32:09.873Z,99347.25
2022-09-23T23:34:37.922Z,99346.25
2022-09-23T23:37:05.987Z,99350.31
2022-09-23T23:39:35.040Z,99342.25
2022-09-23T23:42:04.251Z,99352.19
2022-09-23T23:44:34.557Z,99347.94
2022-09-23T23:47:02.922Z,99344.28
2022-09-23T23:49:30.878Z,99352.97
2022-09-23T23:51:58.858Z,99343.69
2022-09-23T23:54:26.883Z,99346.94
2022-09-23T23:56:54.833Z,99337.56
2022-09-23T23:59:23.126Z,99344.00
